sensor_id;sensor_type;location;lat;lon;timestamp;temperature;humidity
9939;DHT22;5008;50.656;7.188;2022-12-18T05:02:55;-4.70;99.90
9939;DHT22;5008;50.656;7.188;2022-12-18T05:05:21;-4.60;99.90
9939;DHT22;5008;50.656;7.188;2022-12-18T05:07:48;-4.60;99.90
9939;DHT22;5008;50.656;7.188;2022-12-18T05:10:15;-4.50;99.90
9939;DHT22;5008;50.656;7.188;2022-12-18T05:12:42;-4.50;99.90
9939;DHT22;5008;50.656;7.188;2022-12-18T05:15:22;-4.50;99.90
9939;DHT22;5008;50.656;7.188;2022-12-18T05:17:49;-4.50;99.90
9939;DHT22;5008;50.656;7.188;2022-12-18T05:20:20;-4.40;99.90
9939;DHT22;5008;50.656;7.188;2022-12-18T05:22:54;-4.50;99.90
9939;DHT22;5008;50.656;7.188;2022-12-18T05:25:28;-4.50;99.90
9939;DHT22;5008;50.656;7.188;2022-12-18T05:28:02;-4.40;99.90
9939;DHT22;5008;50.656;7.188;2022-12-18T05:30:54;-4.50;99.90
9939;DHT22;5008;50.656;7.188;2022-12-18T05:33:25;-4.50;99.90
9939;DHT22;5008;50.656;7.188;2022-12-18T05:36:10;-4.50;99.90
9939;DHT22;5008;50.656;7.188;2022-12-18T05:38:41;-4.50;99.90
9939;DHT22;5008;50.656;7.188;2022-12-18T05:41:08;-4.40;99.90
9939;DHT22;5008;50.656;7.188;2022-12-18T05:43:36;-4.50;99.90
9939;DHT22;5008;50.656;7.188;2022-12-18T05:46:04;-4.40;99.90
9939;DHT22;5008;50.656;7.188;2022-12-18T05:48:32;-4.40;99.90
9939;DHT22;5008;50.656;7.188;2022-12-18T05:51:05;-4.40;99.90
9939;DHT22;5008;50.656;7.188;2022-12-18T05:53:32;-4.50;99.90
9939;DHT22;5008;50.656;7.188;2022-12-18T05:56:00;-4.40;99.90
9939;DHT22;5008;50.656;7.188;2022-12-18T05:58:31;-4.50;99.90
9939;DHT22;5008;50.656;7.188;2022-12-18T06:01:06;-4.40;99.90
9939;DHT22;5008;50.656;7.188;2022-12-18T06:03:44;-4.40;99.90
9939;DHT22;5008;50.656;7.188;2022-12-18T06:06:16;-4.40;99.90
9939;DHT22;5008;50.656;7.188;2022-12-18T06:08:47;-4.40;99.90
9939;DHT22;5008;50.656;7.188;2022-12-18T06:11:30;-4.40;99.90
9939;DHT22;5008;50.656;7.188;2022-12-18T06:14:14;-4.40;99.90
9939;DHT22;5008;50.656;7.188;2022-12-18T06:16:42;-4.30;99.90
9939;DHT22;5008;50.656;7.188;2022-12-18T06:19:29;-4.30;99.90
9939;DHT22;5008;50.656;7.188;2022-12-18T06:21:57;-4.30;99.90
9939;DHT22;5008;50.656;7.188;2022-12-18T06:24:24;-4.20;99.90
9939;DHT22;5008;50.656;7.188;2022-12-18T06:26:51;-4.20;99.90
9939;DHT22;5008;50.656;7.188;2022-12-18T06:29:18;-4.20;99.90
9939;DHT22;5008;50.656;7.188;2022-12-18T06:31:48;-4.40;99.90
9939;DHT22;5008;50.656;7.188;2022-12-18T06:34:16;-4.40;99.90
9939;DHT22;5008;50.656;7.188;2022-12-18T06:36:43;-4.40;99.90
9939;DHT22;5008;50.656;7.188;2022-12-18T06:39:11;-4.40;99.90
9939;DHT22;5008;50.656;7.188;2022-12-18T06:41:38;-4.40;99.90
9939;DHT22;5008;50.656;7.188;2022-12-18T06:45:07;-4.50;99.90
9939;DHT22;5008;50.656;7.188;2022-12-18T06:47:42;-4.50;99.90
9939;DHT22;5008;50.656;7.188;2022-12-18T06:50:13;-4.50;99.90
9939;DHT22;5008;50.656;7.188;2022-12-18T06:52:54;-4.40;99.90
9939;DHT22;5008;50.656;7.188;2022-12-18T06:55:40;-4.40;99.90
9939;DHT22;5008;50.656;7.188;2022-12-18T06:58:16;-4.50;99.90
9939;DHT22;5008;50.656;7.188;2022-12-18T07:00:45;-4.60;99.90
9939;DHT22;5008;50.656;7.188;2022-12-18T07:03:24;-4.60;99.90
9939;DHT22;5008;50.656;7.188;2022-12-18T07:05:51;-4.70;99.90
9939;DHT22;5008;50.656;7.188;2022-12-18T07:08:34;-4.70;99.90
9939;DHT22;5008;50.656;7.188;2022-12-18T07:11:29;-4.60;99.90
9939;DHT22;5008;50.656;7.188;2022-12-18T07:14:10;-4.50;99.90
9939;DHT22;5008;50.656;7.188;2022-12-18T07:19:48;-4.50;99.90
9939;DHT22;5008;50.656;7.188;2022-12-18T07:22:26;-4.50;99.90
9939;DHT22;5008;50.656;7.188;2022-12-18T07:25:23;-4.50;99.90
9939;DHT22;5008;50.656;7.188;2022-12-18T07:27:52;-4.50;99.90
9939;DHT22;5008;50.656;7.188;2022-12-18T07:30:23;-4.50;99.90
9939;DHT22;5008;50.656;7.188;2022-12-18T07:32:59;-4.50;99.90
9939;DHT22;5008;50.656;7.188;2022-12-18T07:35:26;-4.30;99.90
9939;DHT22;5008;50.656;7.188;2022-12-18T07:37:58;-4.30;99.90
9939;DHT22;5008;50.656;7.188;2022-12-18T07:40:25;-4.30;99.90
9939;DHT22;5008;50.656;7.188;2022-12-18T07:42:58;-4.20;99.90
9939;DHT22;5008;50.656;7.188;2022-12-18T07:45:25;-4.30;99.90
9939;DHT22;5008;50.656;7.188;2022-12-18T07:47:57;-4.20;99.90
9939;DHT22;5008;50.656;7.188;2022-12-18T07:50:23;-4.20;99.90
9939;DHT22;5008;50.656;7.188;2022-12-18T07:52:53;-4.20;99.90
9939;DHT22;5008;50.656;7.188;2022-12-18T07:55:28;-4.20;99.90
9939;DHT22;5008;50.656;7.188;2022-12-18T07:57:55;-4.10;99.90
9939;DHT22;5008;50.656;7.188;2022-12-18T08:00:28;-4.00;99.90
9939;DHT22;5008;50.656;7.188;2022-12-18T08:02:55;-4.10;99.90
9939;DHT22;5008;50.656;7.188;2022-12-18T08:05:22;-4.00;99.90
9939;DHT22;5008;50.656;7.188;2022-12-18T08:07:49;-3.90;99.90
9939;DHT22;5008;50.656;7.188;2022-12-18T08:10:16;-3.70;99.90
9939;DHT22;5008;50.656;7.188;2022-12-18T08:12:43;-3.70;99.90
9939;DHT22;5008;50.656;7.188;2022-12-18T08:15:11;-3.80;99.90
9939;DHT22;5008;50.656;7.188;2022-12-18T08:17:39;-3.70;99.90
9939;DHT22;5008;50.656;7.188;2022-12-18T08:20:07;-3.70;99.90
9939;DHT22;5008;50.656;7.188;2022-12-18T08:22:38;-3.70;99.90
9939;DHT22;5008;50.656;7.188;2022-12-18T08:25:09;-3.70;99.90
9939;DHT22;5008;50.656;7.188;2022-12-18T08:27:38;-3.70;99.90
9939;DHT22;5008;50.656;7.188;2022-12-18T08:30:15;-3.60;99.90
9939;DHT22;5008;50.656;7.188;2022-12-18T08:32:44;-3.60;99.90
9939;DHT22;5008;50.656;7.188;2022-12-18T08:35:20;-3.50;99.90
9939;DHT22;5008;50.656;7.188;2022-12-18T08:37:50;-3.60;99.90
9939;DHT22;5008;50.656;7.188;2022-12-18T08:40:17;-3.50;99.90
9939;DHT22;5008;50.656;7.188;2022-12-18T08:42:43;-3.60;99.90
9939;DHT22;5008;50.656;7.188;2022-12-18T08:45:28;-3.60;99.90
9939;DHT22;5008;50.656;7.188;2022-12-18T08:47:57;-3.40;99.90
9939;DHT22;5008;50.656;7.188;2022-12-18T08:50:27;-3.50;99.90
9939;DHT22;5008;50.656;7.188;2022-12-18T08:52:54;-3.40;99.90
9939;DHT22;5008;50.656;7.188;2022-12-18T08:55:21;-3.30;99.90
9939;DHT22;5008;50.656;7.188;2022-12-18T09:01:23;-3.20;99.90
9939;DHT22;5008;50.656;7.188;2022-12-18T09:18:06;-2.80;99.90
9939;DHT22;5008;50.656;7.188;2022-12-18T09:23:06;-2.80;99.90
9939;DHT22;5008;50.656;7.188;2022-12-18T09:27:57;-2.70;99.90
9939;DHT22;5008;50.656;7.188;2022-12-18T09:30:53;-2.80;99.90
9939;DHT22;5008;50.656;7.188;2022-12-18T09:43:42;-2.40;99.90
9939;DHT22;5008;50.656;7.188;2022-12-18T09:46:16;-2.40;99.90
9939;DHT22;5008;50.656;7.188;2022-12-18T09:49:25;-2.30;99.90
9939;DHT22;5008;50.656;7.188;2022-12-18T09:52:12;-2.20;99.90
9939;DHT22;5008;50.656;7.188;2022-12-18T09:54:50;-2.20;99.90
9939;DHT22;5008;50.656;7.188;2022-12-18T09:57:21;-1.90;99.90
9939;DHT22;5008;50.656;7.188;2022-12-18T09:59:55;-1.80;99.90
9939;DHT22;5008;50.656;7.188;2022-12-18T10:02:24;-1.80;99.90
9939;DHT22;5008;50.656;7.188;2022-12-18T10:05:04;-1.80;99.90
9939;DHT22;5008;50.656;7.188;2022-12-18T10:07:39;-1.80;99.90
9939;DHT22;5008;50.656;7.188;2022-12-18T10:10:18;-1.80;99.90
9939;DHT22;5008;50.656;7.188;2022-12-18T10:12:55;-1.70;99.90
9939;DHT22;5008;50.656;7.188;2022-12-18T10:15:29;-1.80;99.90
9939;DHT22;5008;50.656;7.188;2022-12-18T10:18:01;-1.80;99.90
9939;DHT22;5008;50.656;7.188;2022-12-18T10:20:37;-1.70;99.90
9939;DHT22;5008;50.656;7.188;2022-12-18T10:23:12;-1.70;99.90
9939;DHT22;5008;50.656;7.188;2022-12-18T10:25:49;-1.70;99.90
9939;DHT22;5008;50.656;7.188;2022-12-18T10:28:18;-1.60;99.90
9939;DHT22;5008;50.656;7.188;2022-12-18T10:30:46;-1.50;99.90
9939;DHT22;5008;50.656;7.188;2022-12-18T10:33:16;-1.50;99.90
9939;DHT22;5008;50.656;7.188;2022-12-18T10:35:45;-1.40;99.90
9939;DHT22;5008;50.656;7.188;2022-12-18T10:38:26;-1.30;99.90
9939;DHT22;5008;50.656;7.188;2022-12-18T10:40:56;-1.30;99.90
9939;DHT22;5008;50.656;7.188;2022-12-18T10:43:25;-1.30;99.90
9939;DHT22;5008;50.656;7.188;2022-12-18T10:46:15;-1.20;99.90
9939;DHT22;5008;50.656;7.188;2022-12-18T10:48:53;-1.20;99.90
9939;DHT22;5008;50.656;7.188;2022-12-18T10:51:22;-1.10;99.90
9939;DHT22;5008;50.656;7.188;2022-12-18T10:53:56;-1.00;99.90
9939;DHT22;5008;50.656;7.188;2022-12-18T10:56:25;-1.00;99.90
9939;DHT22;5008;50.656;7.188;2022-12-18T10:58:58;-1.00;99.90
9939;DHT22;5008;50.656;7.188;2022-12-18T11:01:28;-1.00;99.90
9939;DHT22;5008;50.656;7.188;2022-12-18T11:04:08;-1.00;99.90
9939;DHT22;5008;50.656;7.188;2022-12-18T11:06:52;-0.90;99.90
9939;DHT22;5008;50.656;7.188;2022-12-18T11:09:21;-0.90;99.90
9939;DHT22;5008;50.656;7.188;2022-12-18T11:11:49;-0.90;99.90
9939;DHT22;5008;50.656;7.188;2022-12-18T11:14:22;-0.70;99.90
9939;DHT22;5008;50.656;7.188;2022-12-18T11:16:51;-0.70;99.90
9939;DHT22;5008;50.656;7.188;2022-12-18T11:19:31;-0.60;99.90
9939;DHT22;5008;50.656;7.188;2022-12-18T11:21:58;-0.70;99.90
9939;DHT22;5008;50.656;7.188;2022-12-18T11:24:34;-0.60;99.90
9939;DHT22;5008;50.656;7.188;2022-12-18T11:27:03;-0.60;99.90
9939;DHT22;5008;50.656;7.188;2022-12-18T11:29:34;-0.60;99.90
9939;DHT22;5008;50.656;7.188;2022-12-18T11:32:27;-0.50;99.90
9939;DHT22;5008;50.656;7.188;2022-12-18T11:35:00;-0.40;99.90
9939;DHT22;5008;50.656;7.188;2022-12-18T11:37:29;-0.50;99.90
9939;DHT22;5008;50.656;7.188;2022-12-18T11:40:00;-0.50;99.90
9939;DHT22;5008;50.656;7.188;2022-12-18T11:42:35;-0.50;99.90
9939;DHT22;5008;50.656;7.188;2022-12-18T11:45:24;-0.50;99.90
9939;DHT22;5008;50.656;7.188;2022-12-18T11:47:57;-0.50;99.90
9939;DHT22;5008;50.656;7.188;2022-12-18T11:50:28;-0.50;99.90
9939;DHT22;5008;50.656;7.188;2022-12-18T11:52:56;-0.60;99.90
9939;DHT22;5008;50.656;7.188;2022-12-18T11:55:30;-0.60;99.90
9939;DHT22;5008;50.656;7.188;2022-12-18T11:58:06;-0.50;99.90
9939;DHT22;5008;50.656;7.188;2022-12-18T12:00:38;-0.50;99.90
9939;DHT22;5008;50.656;7.188;2022-12-18T12:03:22;-0.50;99.90
9939;DHT22;5008;50.656;7.188;2022-12-18T12:05:59;-0.50;99.90
9939;DHT22;5008;50.656;7.188;2022-12-18T12:08:38;-0.50;99.90
9939;DHT22;5008;50.656;7.188;2022-12-18T12:11:15;-0.50;99.90
9939;DHT22;5008;50.656;7.188;2022-12-18T12:14:01;-0.50;99.90
9939;DHT22;5008;50.656;7.188;2022-12-18T12:16:37;-0.60;99.90
9939;DHT22;5008;50.656;7.188;2022-12-18T12:19:18;-0.60;99.90
9939;DHT22;5008;50.656;7.188;2022-12-18T12:21:58;-0.70;99.90
9939;DHT22;5008;50.656;7.188;2022-12-18T12:24:36;-0.70;99.90
9939;DHT22;5008;50.656;7.188;2022-12-18T12:27:11;-0.60;99.90
9939;DHT22;5008;50.656;7.188;2022-12-18T12:29:49;-0.60;99.90
9939;DHT22;5008;50.656;7.188;2022-12-18T12:32:25;-0.60;99.90
9939;DHT22;5008;50.656;7.188;2022-12-18T12:35:08;-0.60;99.90
9939;DHT22;5008;50.656;7.188;2022-12-18T12:37:47;-0.60;99.90
9939;DHT22;5008;50.656;7.188;2022-12-18T12:40:18;-0.50;99.90
9939;DHT22;5008;50.656;7.188;2022-12-18T12:42:49;-0.50;99.90
9939;DHT22;5008;50.656;7.188;2022-12-18T12:45:38;-0.50;99.90
9939;DHT22;5008;50.656;7.188;2022-12-18T12:48:16;-0.40;99.90
9939;DHT22;5008;50.656;7.188;2022-12-18T12:50:46;-0.40;99.90
9939;DHT22;5008;50.656;7.188;2022-12-18T12:53:21;-0.30;99.90
9939;DHT22;5008;50.656;7.188;2022-12-18T12:55:50;-0.40;99.90
9939;DHT22;5008;50.656;7.188;2022-12-18T12:58:23;-0.30;99.90
9939;DHT22;5008;50.656;7.188;2022-12-18T13:00:59;-0.30;99.90
9939;DHT22;5008;50.656;7.188;2022-12-18T13:03:36;-0.30;99.90
9939;DHT22;5008;50.656;7.188;2022-12-18T13:06:14;-0.30;99.90
9939;DHT22;5008;50.656;7.188;2022-12-18T13:08:55;-0.30;99.90
9939;DHT22;5008;50.656;7.188;2022-12-18T13:11:35;-0.30;99.90
9939;DHT22;5008;50.656;7.188;2022-12-18T13:14:23;-0.20;99.90
9939;DHT22;5008;50.656;7.188;2022-12-18T13:16:50;-0.20;99.90
9939;DHT22;5008;50.656;7.188;2022-12-18T13:19:23;-0.20;99.90
9939;DHT22;5008;50.656;7.188;2022-12-18T13:21:54;-0.20;99.90
9939;DHT22;5008;50.656;7.188;2022-12-18T13:24:25;-0.10;99.90
9939;DHT22;5008;50.656;7.188;2022-12-18T13:26:52;-0.20;99.90
9939;DHT22;5008;50.656;7.188;2022-12-18T13:29:42;-0.20;99.90
9939;DHT22;5008;50.656;7.188;2022-12-18T13:32:20;-0.20;99.90
9939;DHT22;5008;50.656;7.188;2022-12-18T13:34:48;-0.20;99.90
9939;DHT22;5008;50.656;7.188;2022-12-18T13:37:50;-0.20;99.90
9939;DHT22;5008;50.656;7.188;2022-12-18T13:43:33;-0.30;99.90
9939;DHT22;5008;50.656;7.188;2022-12-18T13:46:06;-0.30;99.90
9939;DHT22;5008;50.656;7.188;2022-12-18T13:48:50;-0.30;99.90
9939;DHT22;5008;50.656;7.188;2022-12-18T13:51:19;-0.20;99.90
9939;DHT22;5008;50.656;7.188;2022-12-18T13:53:51;-0.20;99.90
9939;DHT22;5008;50.656;7.188;2022-12-18T13:56:23;-0.20;99.90
9939;DHT22;5008;50.656;7.188;2022-12-18T13:59:11;-0.20;99.90
9939;DHT22;5008;50.656;7.188;2022-12-18T14:01:42;-0.30;99.90
9939;DHT22;5008;50.656;7.188;2022-12-18T14:04:10;-0.30;99.90
9939;DHT22;5008;50.656;7.188;2022-12-18T14:06:37;-0.30;99.90
9939;DHT22;5008;50.656;7.188;2022-12-18T14:09:08;-0.30;99.90
9939;DHT22;5008;50.656;7.188;2022-12-18T14:11:37;-0.40;99.90
9939;DHT22;5008;50.656;7.188;2022-12-18T14:14:04;-0.40;99.90
9939;DHT22;5008;50.656;7.188;2022-12-18T14:16:34;-0.40;99.90
9939;DHT22;5008;50.656;7.188;2022-12-18T14:19:01;-0.40;99.90
9939;DHT22;5008;50.656;7.188;2022-12-18T14:21:29;-0.50;99.90
9939;DHT22;5008;50.656;7.188;2022-12-18T14:24:12;-0.50;99.90
9939;DHT22;5008;50.656;7.188;2022-12-18T14:26:39;-0.60;99.90
9939;DHT22;5008;50.656;7.188;2022-12-18T14:29:23;-0.60;99.90
9939;DHT22;5008;50.656;7.188;2022-12-18T14:32:09;-0.60;99.90
9939;DHT22;5008;50.656;7.188;2022-12-18T14:34:36;-0.60;99.90
9939;DHT22;5008;50.656;7.188;2022-12-18T14:37:04;-0.60;99.90
9939;DHT22;5008;50.656;7.188;2022-12-18T14:39:32;-0.60;99.90
9939;DHT22;5008;50.656;7.188;2022-12-18T14:41:59;-0.70;99.90
9939;DHT22;5008;50.656;7.188;2022-12-18T14:44:25;-0.70;99.90
9939;DHT22;5008;50.656;7.188;2022-12-18T14:46:52;-0.70;99.90
9939;DHT22;5008;50.656;7.188;2022-12-18T14:49:23;-0.70;99.90
9939;DHT22;5008;50.656;7.188;2022-12-18T14:51:53;-0.70;99.90
9939;DHT22;5008;50.656;7.188;2022-12-18T14:54:21;-0.80;99.90
9939;DHT22;5008;50.656;7.188;2022-12-18T14:56:51;-0.80;99.90
9939;DHT22;5008;50.656;7.188;2022-12-18T14:59:23;-0.80;99.90
9939;DHT22;5008;50.656;7.188;2022-12-18T15:01:58;-0.80;99.90
9939;DHT22;5008;50.656;7.188;2022-12-18T15:04:28;-0.80;99.90
9939;DHT22;5008;50.656;7.188;2022-12-18T15:07:09;-0.90;99.90
9939;DHT22;5008;50.656;7.188;2022-12-18T15:09:39;-0.90;99.90
9939;DHT22;5008;50.656;7.188;2022-12-18T15:12:24;-0.80;99.90
9939;DHT22;5008;50.656;7.188;2022-12-18T15:14:52;-0.90;99.90
9939;DHT22;5008;50.656;7.188;2022-12-18T15:17:20;-0.80;99.90
9939;DHT22;5008;50.656;7.188;2022-12-18T15:19:49;-0.80;99.90
9939;DHT22;5008;50.656;7.188;2022-12-18T15:22:22;-0.80;99.90
9939;DHT22;5008;50.656;7.188;2022-12-18T15:24:51;-0.80;99.90
9939;DHT22;5008;50.656;7.188;2022-12-18T15:27:31;-0.80;99.90
9939;DHT22;5008;50.656;7.188;2022-12-18T15:30:22;-0.80;99.90
9939;DHT22;5008;50.656;7.188;2022-12-18T15:32:49;-0.80;99.90
9939;DHT22;5008;50.656;7.188;2022-12-18T15:35:19;-0.80;99.90
9939;DHT22;5008;50.656;7.188;2022-12-18T15:37:46;-0.80;99.90
9939;DHT22;5008;50.656;7.188;2022-12-18T15:40:14;-0.90;99.90
9939;DHT22;5008;50.656;7.188;2022-12-18T15:42:43;-0.90;99.90
9939;DHT22;5008;50.656;7.188;2022-12-18T15:45:28;-0.90;99.90
9939;DHT22;5008;50.656;7.188;2022-12-18T15:47:54;-0.90;99.90
9939;DHT22;5008;50.656;7.188;2022-12-18T15:50:21;-0.90;99.90
9939;DHT22;5008;50.656;7.188;2022-12-18T15:52:50;-0.90;99.90
9939;DHT22;5008;50.656;7.188;2022-12-18T15:55:19;-0.90;99.90
9939;DHT22;5008;50.656;7.188;2022-12-18T15:58:05;-0.90;99.90
9939;DHT22;5008;50.656;7.188;2022-12-18T16:00:32;-0.90;99.90
9939;DHT22;5008;50.656;7.188;2022-12-18T16:03:00;-1.00;99.90
9939;DHT22;5008;50.656;7.188;2022-12-18T16:05:28;-1.00;99.90
9939;DHT22;5008;50.656;7.188;2022-12-18T16:07:54;-1.00;99.90
9939;DHT22;5008;50.656;7.188;2022-12-18T16:10:21;-1.00;99.90
9939;DHT22;5008;50.656;7.188;2022-12-18T16:12:49;-1.00;99.90
9939;DHT22;5008;50.656;7.188;2022-12-18T16:15:17;-1.00;99.90
9939;DHT22;5008;50.656;7.188;2022-12-18T16:17:44;-1.00;99.90
9939;DHT22;5008;50.656;7.188;2022-12-18T16:20:12;-1.10;99.90
9939;DHT22;5008;50.656;7.188;2022-12-18T16:22:41;-1.10;99.90
9939;DHT22;5008;50.656;7.188;2022-12-18T16:25:16;-1.00;99.90
9939;DHT22;5008;50.656;7.188;2022-12-18T16:27:44;-1.00;99.90
9939;DHT22;5008;50.656;7.188;2022-12-18T16:30:13;-1.00;99.90
9939;DHT22;5008;50.656;7.188;2022-12-18T16:32:41;-1.00;99.90
9939;DHT22;5008;50.656;7.188;2022-12-18T16:35:10;-1.00;99.90
9939;DHT22;5008;50.656;7.188;2022-12-18T16:37:37;-1.00;99.90
9939;DHT22;5008;50.656;7.188;2022-12-18T16:40:05;-1.00;99.90
9939;DHT22;5008;50.656;7.188;2022-12-18T16:42:34;-0.70;99.90
9939;DHT22;5008;50.656;7.188;2022-12-18T16:45:02;-0.90;99.90
9939;DHT22;5008;50.656;7.188;2022-12-18T16:47:29;-1.00;99.90
9939;DHT22;5008;50.656;7.188;2022-12-18T16:50:02;-0.90;99.90
9939;DHT22;5008;50.656;7.188;2022-12-18T16:52:29;-0.90;99.90
9939;DHT22;5008;50.656;7.188;2022-12-18T16:54:55;-1.00;99.90
9939;DHT22;5008;50.656;7.188;2022-12-18T16:57:23;-1.00;99.90
9939;DHT22;5008;50.656;7.188;2022-12-18T16:59:49;-1.00;99.90
9939;DHT22;5008;50.656;7.188;2022-12-18T17:02:18;-0.90;99.90
9939;DHT22;5008;50.656;7.188;2022-12-18T17:04:45;-1.00;99.90
9939;DHT22;5008;50.656;7.188;2022-12-18T17:07:14;-1.00;99.90
9939;DHT22;5008;50.656;7.188;2022-12-18T17:09:41;-1.00;99.90
9939;DHT22;5008;50.656;7.188;2022-12-18T17:12:15;-1.00;99.90
9939;DHT22;5008;50.656;7.188;2022-12-18T17:14:42;-1.00;99.90
9939;DHT22;5008;50.656;7.188;2022-12-18T17:17:09;-1.00;99.90
9939;DHT22;5008;50.656;7.188;2022-12-18T17:19:36;-1.00;99.90
9939;DHT22;5008;50.656;7.188;2022-12-18T17:22:03;-1.10;99.90
9939;DHT22;5008;50.656;7.188;2022-12-18T17:24:31;-1.10;99.90
9939;DHT22;5008;50.656;7.188;2022-12-18T17:26:58;-1.00;99.90
9939;DHT22;5008;50.656;7.188;2022-12-18T17:29:24;-1.00;99.90
9939;DHT22;5008;50.656;7.188;2022-12-18T17:31:51;-1.00;99.90
9939;DHT22;5008;50.656;7.188;2022-12-18T17:34:19;-1.00;99.90
9939;DHT22;5008;50.656;7.188;2022-12-18T17:36:46;-1.00;99.90
9939;DHT22;5008;50.656;7.188;2022-12-18T17:39:16;-1.00;99.90
9939;DHT22;5008;50.656;7.188;2022-12-18T17:41:46;-1.00;99.90
9939;DHT22;5008;50.656;7.188;2022-12-18T17:44:13;-1.10;99.90
9939;DHT22;5008;50.656;7.188;2022-12-18T17:46:41;-1.10;99.90
9939;DHT22;5008;50.656;7.188;2022-12-18T17:49:08;-1.10;99.90
9939;DHT22;5008;50.656;7.188;2022-12-18T17:51:35;-1.10;99.90
9939;DHT22;5008;50.656;7.188;2022-12-18T17:54:02;-1.10;99.90
9939;DHT22;5008;50.656;7.188;2022-12-18T17:56:29;-1.10;99.90
9939;DHT22;5008;50.656;7.188;2022-12-18T17:58:58;-1.20;99.90
9939;DHT22;5008;50.656;7.188;2022-12-18T18:01:25;-1.20;99.90
9939;DHT22;5008;50.656;7.188;2022-12-18T18:03:53;-1.10;99.90
9939;DHT22;5008;50.656;7.188;2022-12-18T18:06:21;-1.20;99.90
9939;DHT22;5008;50.656;7.188;2022-12-18T18:08:48;-1.20;99.90
9939;DHT22;5008;50.656;7.188;2022-12-18T18:11:17;-1.20;99.90
9939;DHT22;5008;50.656;7.188;2022-12-18T18:14:04;-1.20;99.90
9939;DHT22;5008;50.656;7.188;2022-12-18T18:16:34;-1.20;99.90
9939;DHT22;5008;50.656;7.188;2022-12-18T18:19:03;-1.10;99.90
9939;DHT22;5008;50.656;7.188;2022-12-18T18:21:31;-1.10;99.90
9939;DHT22;5008;50.656;7.188;2022-12-18T18:23:59;-1.10;99.90
9939;DHT22;5008;50.656;7.188;2022-12-18T18:26:26;-1.10;99.90
9939;DHT22;5008;50.656;7.188;2022-12-18T18:28:56;-1.00;99.90
9939;DHT22;5008;50.656;7.188;2022-12-18T18:31:25;-1.10;99.90
9939;DHT22;5008;50.656;7.188;2022-12-18T18:33:52;-1.10;99.90
9939;DHT22;5008;50.656;7.188;2022-12-18T18:36:19;-1.10;99.90
9939;DHT22;5008;50.656;7.188;2022-12-18T18:38:46;-1.10;99.90
9939;DHT22;5008;50.656;7.188;2022-12-18T18:41:13;-1.10;99.90
9939;DHT22;5008;50.656;7.188;2022-12-18T18:43:40;-1.10;99.90
9939;DHT22;5008;50.656;7.188;2022-12-18T18:46:08;-1.10;99.90
9939;DHT22;5008;50.656;7.188;2022-12-18T18:48:38;-1.10;99.90
9939;DHT22;5008;50.656;7.188;2022-12-18T18:51:07;-1.00;99.90
9939;DHT22;5008;50.656;7.188;2022-12-18T18:53:35;-1.10;99.90
9939;DHT22;5008;50.656;7.188;2022-12-18T18:56:03;-1.00;99.90
9939;DHT22;5008;50.656;7.188;2022-12-18T18:58:30;-1.00;99.90
9939;DHT22;5008;50.656;7.188;2022-12-18T19:00:59;-1.00;99.90
9939;DHT22;5008;50.656;7.188;2022-12-18T19:03:34;-1.00;99.90
9939;DHT22;5008;50.656;7.188;2022-12-18T19:06:04;-1.00;99.90
9939;DHT22;5008;50.656;7.188;2022-12-18T19:08:34;-0.90;99.90
9939;DHT22;5008;50.656;7.188;2022-12-18T19:11:02;-0.90;99.90
9939;DHT22;5008;50.656;7.188;2022-12-18T19:13:31;-0.90;99.90
9939;DHT22;5008;50.656;7.188;2022-12-18T19:16:03;-0.90;99.90
9939;DHT22;5008;50.656;7.188;2022-12-18T19:18:30;-0.90;99.90
9939;DHT22;5008;50.656;7.188;2022-12-18T19:20:59;-0.80;99.90
9939;DHT22;5008;50.656;7.188;2022-12-18T19:23:27;-0.80;99.90
9939;DHT22;5008;50.656;7.188;2022-12-18T19:25:57;-0.80;99.90
9939;DHT22;5008;50.656;7.188;2022-12-18T19:28:25;-0.80;99.90
9939;DHT22;5008;50.656;7.188;2022-12-18T19:30:53;-0.70;99.90
9939;DHT22;5008;50.656;7.188;2022-12-18T19:33:21;-0.80;99.90
9939;DHT22;5008;50.656;7.188;2022-12-18T19:35:49;-0.70;99.90
9939;DHT22;5008;50.656;7.188;2022-12-18T19:38:16;-0.70;99.90
9939;DHT22;5008;50.656;7.188;2022-12-18T19:40:45;-0.70;99.90
9939;DHT22;5008;50.656;7.188;2022-12-18T19:43:13;-0.70;99.90
9939;DHT22;5008;50.656;7.188;2022-12-18T19:45:40;-0.60;99.90
9939;DHT22;5008;50.656;7.188;2022-12-18T19:48:07;-0.60;99.90
9939;DHT22;5008;50.656;7.188;2022-12-18T19:50:39;-0.60;99.90
9939;DHT22;5008;50.656;7.188;2022-12-18T19:53:06;-0.60;99.90
9939;DHT22;5008;50.656;7.188;2022-12-18T19:55:33;-0.60;99.90
9939;DHT22;5008;50.656;7.188;2022-12-18T19:58:01;-0.50;99.90
9939;DHT22;5008;50.656;7.188;2022-12-18T20:00:27;-0.50;99.90
9939;DHT22;5008;50.656;7.188;2022-12-18T20:02:54;-0.60;99.90
9939;DHT22;5008;50.656;7.188;2022-12-18T20:05:21;-0.50;99.90
9939;DHT22;5008;50.656;7.188;2022-12-18T20:07:49;-0.50;99.90
9939;DHT22;5008;50.656;7.188;2022-12-18T20:10:17;-0.50;99.90
9939;DHT22;5008;50.656;7.188;2022-12-18T20:12:44;-0.50;99.90
9939;DHT22;5008;50.656;7.188;2022-12-18T20:15:12;-0.40;99.90
9939;DHT22;5008;50.656;7.188;2022-12-18T20:17:39;-0.50;99.90
9939;DHT22;5008;50.656;7.188;2022-12-18T20:20:06;-0.40;99.90
9939;DHT22;5008;50.656;7.188;2022-12-18T20:22:33;-0.40;99.90
9939;DHT22;5008;50.656;7.188;2022-12-18T20:25:00;-0.40;99.90
9939;DHT22;5008;50.656;7.188;2022-12-18T20:27:27;-0.40;99.90
9939;DHT22;5008;50.656;7.188;2022-12-18T20:29:54;-0.30;99.90
9939;DHT22;5008;50.656;7.188;2022-12-18T20:32:22;-0.30;99.90
9939;DHT22;5008;50.656;7.188;2022-12-18T20:34:48;-0.30;99.90
9939;DHT22;5008;50.656;7.188;2022-12-18T20:37:15;-0.30;99.90
9939;DHT22;5008;50.656;7.188;2022-12-18T20:39:42;-0.30;99.90
9939;DHT22;5008;50.656;7.188;2022-12-18T20:42:09;-0.30;99.90
9939;DHT22;5008;50.656;7.188;2022-12-18T20:44:35;-0.30;99.90
9939;DHT22;5008;50.656;7.188;2022-12-18T20:47:02;-0.20;99.90
9939;DHT22;5008;50.656;7.188;2022-12-18T20:49:30;-0.20;99.90
9939;DHT22;5008;50.656;7.188;2022-12-18T20:51:57;-0.20;99.90
9939;DHT22;5008;50.656;7.188;2022-12-18T20:54:31;-0.20;99.90
9939;DHT22;5008;50.656;7.188;2022-12-18T20:56:58;-0.20;99.90
9939;DHT22;5008;50.656;7.188;2022-12-18T20:59:25;-0.20;99.90
9939;DHT22;5008;50.656;7.188;2022-12-18T21:01:53;-0.10;99.90
9939;DHT22;5008;50.656;7.188;2022-12-18T21:04:20;-0.10;99.90
9939;DHT22;5008;50.656;7.188;2022-12-18T21:06:49;-0.10;99.90
9939;DHT22;5008;50.656;7.188;2022-12-18T21:09:16;-0.10;99.90
9939;DHT22;5008;50.656;7.188;2022-12-18T21:11:43;-0.10;99.90
9939;DHT22;5008;50.656;7.188;2022-12-18T21:14:28;-0.10;99.90
9939;DHT22;5008;50.656;7.188;2022-12-18T21:16:56;0.00;99.90
9939;DHT22;5008;50.656;7.188;2022-12-18T21:19:25;0.40;99.90
9939;DHT22;5008;50.656;7.188;2022-12-18T21:21:54;0.20;99.90
9939;DHT22;5008;50.656;7.188;2022-12-18T21:24:22;0.10;99.90
9939;DHT22;5008;50.656;7.188;2022-12-18T21:26:49;0.10;99.90
9939;DHT22;5008;50.656;7.188;2022-12-18T21:29:18;0.20;99.90
9939;DHT22;5008;50.656;7.188;2022-12-18T21:31:46;0.20;99.90
9939;DHT22;5008;50.656;7.188;2022-12-18T21:34:15;0.20;99.90
9939;DHT22;5008;50.656;7.188;2022-12-18T21:36:42;0.20;99.90
9939;DHT22;5008;50.656;7.188;2022-12-18T21:39:10;0.20;99.90
9939;DHT22;5008;50.656;7.188;2022-12-18T21:41:37;0.20;99.90
9939;DHT22;5008;50.656;7.188;2022-12-18T21:44:22;0.20;99.90
9939;DHT22;5008;50.656;7.188;2022-12-18T21:46:50;0.30;99.90
9939;DHT22;5008;50.656;7.188;2022-12-18T21:49:18;0.30;99.90
9939;DHT22;5008;50.656;7.188;2022-12-18T21:51:46;0.30;99.90
9939;DHT22;5008;50.656;7.188;2022-12-18T21:54:15;0.30;99.90
9939;DHT22;5008;50.656;7.188;2022-12-18T21:56:44;0.30;99.90
9939;DHT22;5008;50.656;7.188;2022-12-18T21:59:11;0.30;99.90
